Unalaska, Alaska
Current Conditions -  °F | °C
As of 12:24 PM on Wednesday 26 Nov 2014 (Local Time) from PADU Reporting Station
Broken Clouds Broken Clouds  
Wind Chill: 40°   Ceiling: 3400
Heat Index: 45°   Visibility: 10mi
Dew Point: 34°   Wind: 8mph
Humidity: 66%   Direction: 160°SSE
Pressure: 30.02"   Gusts: NA
Location:  53.87°N, 166.54°W
Report Text: PADU 262124Z 16007KT 10SM SCT027 BKN034 07/01 A3002 RMK AO2 RAB00E16 P0000
Loading
Personal Weather Stations






























Interactive Weather Map New forecast layout! Learn more

10-Day Weather Forecast

Advertisements
Track Severe Weather on mobile